createdAt,value
2019-03-16T00:01:57.629Z,3.90
2019-03-16T00:04:37.682Z,4.40
2019-03-16T00:07:17.571Z,2.55
2019-03-16T00:09:57.808Z,4.03
2019-03-16T00:12:42.900Z,2.37
2019-03-16T00:15:22.874Z,3.35
2019-03-16T00:18:06.512Z,2.25
2019-03-16T00:20:46.747Z,7.12
2019-03-16T00:23:26.735Z,1.40
2019-03-16T00:26:07.999Z,3.00
2019-03-16T00:28:47.695Z,3.25
2019-03-16T00:31:27.587Z,4.75
2019-03-16T00:34:07.330Z,3.70
2019-03-16T00:36:47.249Z,3.17
2019-03-16T00:39:27.000Z,3.12
2019-03-16T00:42:06.944Z,4.97
2019-03-16T00:44:47.190Z,3.65
2019-03-16T00:47:27.203Z,7.25
2019-03-16T00:50:08.356Z,4.28
2019-03-16T00:52:48.881Z,5.55
2019-03-16T00:55:28.727Z,3.98
2019-03-16T00:58:09.036Z,2.80
2019-03-16T01:00:49.226Z,2.80
2019-03-16T01:03:29.441Z,1.57
2019-03-16T01:06:09.775Z,4.12
2019-03-16T01:08:49.490Z,4.65
2019-03-16T01:11:30.640Z,3.55
2019-03-16T01:14:10.458Z,3.72
2019-03-16T01:16:50.399Z,3.10
2019-03-16T01:19:30.370Z,3.70
2019-03-16T01:22:10.218Z,4.87
2019-03-16T01:24:50.205Z,7.80
2019-03-16T01:27:30.390Z,2.58
2019-03-16T01:30:15.707Z,2.92
2019-03-16T01:32:56.859Z,5.10
2019-03-16T01:35:37.469Z,3.15
2019-03-16T01:38:17.272Z,3.92
2019-03-16T01:40:57.553Z,5.35
2019-03-16T01:43:38.482Z,4.33
2019-03-16T01:46:18.391Z,5.72
2019-03-16T01:48:58.182Z,5.35
2019-03-16T01:51:37.882Z,3.55
2019-03-16T01:54:20.743Z,5.30
2019-03-16T01:57:00.537Z,4.20
2019-03-16T01:59:40.289Z,5.83
2019-03-16T02:02:20.406Z,8.78
2019-03-16T02:05:00.273Z,3.80
2019-03-16T02:07:41.860Z,3.75
2019-03-16T02:10:21.748Z,3.33
2019-03-16T02:13:04.099Z,4.22
2019-03-16T02:15:43.980Z,6.67
2019-03-16T02:18:23.894Z,3.60
2019-03-16T02:21:04.008Z,3.40
2019-03-16T02:23:43.853Z,5.33
2019-03-16T02:26:35.841Z,2.83
2019-03-16T02:29:18.160Z,7.75
2019-03-16T02:31:58.194Z,6.12
2019-03-16T02:34:38.087Z,4.85
2019-03-16T02:37:18.141Z,7.12
2019-03-16T02:39:58.194Z,7.72
2019-03-16T02:42:38.139Z,4.33
2019-03-16T02:45:18.079Z,3.42
2019-03-16T02:48:03.242Z,3.50
2019-03-16T02:50:43.148Z,6.67
2019-03-16T02:53:22.862Z,6.50
2019-03-16T02:56:02.910Z,5.58
2019-03-16T02:58:42.766Z,4.20
2019-03-16T03:01:23.152Z,5.55
2019-03-16T03:04:02.995Z,4.72
2019-03-16T03:06:42.854Z,4.00
2019-03-16T03:09:22.838Z,5.97
2019-03-16T03:12:03.387Z,5.53
2019-03-16T03:14:43.351Z,7.47
2019-03-16T03:17:23.557Z,5.20
2019-03-16T03:20:03.766Z,5.53
2019-03-16T03:22:44.360Z,5.75
2019-03-16T03:25:24.335Z,4.92
2019-03-16T03:28:04.192Z,5.35
2019-03-16T03:30:45.267Z,4.17
2019-03-16T03:33:57.780Z,4.50
2019-03-16T03:36:14.819Z,4.83
2019-03-16T03:38:55.968Z,4.72
2019-03-16T03:41:36.094Z,5.10
2019-03-16T03:44:16.274Z,6.87
2019-03-16T03:46:56.138Z,4.95
2019-03-16T03:49:36.281Z,6.33
2019-03-16T03:52:16.208Z,3.55
2019-03-16T03:54:56.160Z,5.33
2019-03-16T03:57:36.114Z,6.47
2019-03-16T04:00:16.199Z,5.03
2019-03-16T04:02:56.191Z,6.87
2019-03-16T04:05:36.333Z,4.33
2019-03-16T04:08:18.025Z,2.27
2019-03-16T04:10:57.783Z,4.25
2019-03-16T04:13:38.544Z,7.53
2019-03-16T04:16:18.698Z,8.83
2019-03-16T04:19:00.536Z,5.47
2019-03-16T04:21:40.748Z,5.37
2019-03-16T04:24:20.583Z,8.13
2019-03-16T04:27:15.113Z,2.72
2019-03-16T04:29:44.796Z,8.95
2019-03-16T04:32:25.006Z,12.88
2019-03-16T04:35:04.904Z,5.70
2019-03-16T04:37:46.217Z,10.80
2019-03-16T04:40:25.987Z,7.22
2019-03-16T04:43:06.251Z,3.80
2019-03-16T04:45:46.580Z,6.22
2019-03-16T04:48:26.540Z,7.92
2019-03-16T04:51:06.419Z,5.60
2019-03-16T04:53:46.791Z,7.08
2019-03-16T04:56:27.938Z,4.87
2019-03-16T04:59:07.816Z,4.95
2019-03-16T05:01:48.958Z,6.97
2019-03-16T05:04:41.923Z,4.28
2019-03-16T05:07:13.973Z,3.22
2019-03-16T05:09:54.032Z,5.25
2019-03-16T05:12:33.887Z,6.53
2019-03-16T05:15:14.104Z,8.80
2019-03-16T05:17:53.987Z,4.72
2019-03-16T05:20:34.017Z,5.80
2019-03-16T05:23:16.209Z,12.15
2019-03-16T05:25:56.160Z,5.47
2019-03-16T05:28:35.883Z,6.65
2019-03-16T05:31:15.624Z,6.75
2019-03-16T05:33:55.710Z,6.62
2019-03-16T05:36:35.686Z,8.05
2019-03-16T05:39:15.422Z,3.52
2019-03-16T05:41:55.091Z,8.18
2019-03-16T05:44:36.431Z,7.12
2019-03-16T05:47:16.218Z,3.50
2019-03-16T05:49:57.174Z,6.00
2019-03-16T05:52:36.953Z,7.78
2019-03-16T05:55:16.775Z,6.53
2019-03-16T05:57:56.702Z,9.88
2019-03-16T06:00:37.500Z,3.37
2019-03-16T06:03:17.577Z,7.20
2019-03-16T06:05:57.577Z,4.97
2019-03-16T06:08:37.895Z,4.45
2019-03-16T06:11:18.089Z,7.70
2019-03-16T06:13:58.007Z,3.85
2019-03-16T06:16:37.770Z,4.05
2019-03-16T06:19:17.846Z,6.25
2019-03-16T06:21:57.587Z,5.53
2019-03-16T06:24:37.365Z,6.37
2019-03-16T06:27:17.161Z,8.60
2019-03-16T06:29:57.033Z,6.03
2019-03-16T06:32:38.023Z,5.37
2019-03-16T06:35:24.370Z,5.87
2019-03-16T06:37:59.537Z,9.73
2019-03-16T06:40:39.877Z,6.62
2019-03-16T06:43:19.583Z,4.65
2019-03-16T06:45:59.550Z,8.83
2019-03-16T06:48:42.842Z,5.10
2019-03-16T06:51:23.270Z,9.75
2019-03-16T06:54:03.036Z,5.78
2019-03-16T06:56:43.005Z,6.92
2019-03-16T06:59:23.083Z,8.88
2019-03-16T07:02:03.089Z,8.08
2019-03-16T07:04:48.114Z,6.65
2019-03-16T07:07:27.857Z,8.03
2019-03-16T07:10:09.948Z,10.32
2019-03-16T07:12:49.908Z,8.95
2019-03-16T07:15:29.800Z,7.78
2019-03-16T07:18:09.692Z,10.25
2019-03-16T07:20:49.490Z,3.58
2019-03-16T07:23:33.607Z,6.47
2019-03-16T07:26:15.264Z,6.17
2019-03-16T07:28:55.824Z,4.92
2019-03-16T07:31:35.696Z,4.20
2019-03-16T07:34:15.531Z,8.90
2019-03-16T07:36:55.356Z,7.42
2019-03-16T07:39:35.241Z,4.30
2019-03-16T07:42:15.444Z,4.65
2019-03-16T07:45:07.496Z,4.40
2019-03-16T07:47:38.005Z,5.17
2019-03-16T07:50:19.948Z,4.47
2019-03-16T07:52:59.796Z,7.22
2019-03-16T07:55:42.483Z,7.72
2019-03-16T07:58:22.458Z,3.83
2019-03-16T08:01:03.424Z,5.50
2019-03-16T08:03:43.553Z,4.78
2019-03-16T08:06:23.517Z,2.67
2019-03-16T08:09:04.964Z,2.92
2019-03-16T08:11:45.142Z,4.75
2019-03-16T08:14:25.189Z,4.60
2019-03-16T08:17:05.102Z,5.25
2019-03-16T08:19:45.089Z,3.42
2019-03-16T08:22:27.192Z,3.92
2019-03-16T08:25:10.036Z,5.58
2019-03-16T08:27:54.707Z,3.42
2019-03-16T08:30:34.907Z,4.12
2019-03-16T08:33:14.900Z,5.83
2019-03-16T08:35:54.995Z,4.17
2019-03-16T08:38:35.059Z,4.20
2019-03-16T08:41:16.936Z,3.10
2019-03-16T08:43:59.981Z,4.53
2019-03-16T08:46:40.085Z,3.98
2019-03-16T08:49:19.990Z,4.47
2019-03-16T08:51:59.856Z,5.22
2019-03-16T08:54:39.851Z,4.10
2019-03-16T08:57:21.851Z,5.22
2019-03-16T09:00:05.102Z,12.73
2019-03-16T09:02:45.137Z,7.58
2019-03-16T09:05:25.093Z,7.37
2019-03-16T09:08:04.831Z,6.12
2019-03-16T09:10:47.977Z,4.67
2019-03-16T09:13:30.318Z,6.75
2019-03-16T09:16:10.444Z,7.05
2019-03-16T09:18:50.256Z,8.28
2019-03-16T09:21:30.425Z,6.15
2019-03-16T09:24:10.276Z,6.45
2019-03-16T09:26:50.576Z,3.90
2019-03-16T09:29:30.252Z,6.80
2019-03-16T09:32:10.280Z,7.17
2019-03-16T09:34:50.371Z,4.00
2019-03-16T09:37:31.050Z,6.95
2019-03-16T09:40:10.855Z,8.50
2019-03-16T09:42:57.456Z,5.80
2019-03-16T09:45:37.382Z,7.90
2019-03-16T09:48:22.272Z,4.40
2019-03-16T09:51:07.853Z,7.08
2019-03-16T09:53:47.913Z,5.67
2019-03-16T09:56:27.895Z,4.95
2019-03-16T09:59:11.820Z,4.03
2019-03-16T10:01:51.686Z,6.33
2019-03-16T10:04:32.149Z,4.03
2019-03-16T10:07:11.913Z,5.10
2019-03-16T10:09:51.827Z,5.67
2019-03-16T10:12:31.591Z,4.45
2019-03-16T10:15:11.987Z,5.78
2019-03-16T10:17:53.039Z,5.35
2019-03-16T10:20:34.907Z,4.10
2019-03-16T10:23:14.942Z,5.17
2019-03-16T10:25:54.839Z,5.65
2019-03-16T10:28:43.113Z,4.58
2019-03-16T10:31:16.088Z,5.25
2019-03-16T10:33:56.968Z,6.25
2019-03-16T10:36:36.770Z,6.30
2019-03-16T10:39:16.967Z,2.17
2019-03-16T10:41:59.243Z,3.22
2019-03-16T10:44:39.088Z,3.22
2019-03-16T10:47:18.884Z,4.97
2019-03-16T10:49:58.843Z,4.78
2019-03-16T10:52:38.779Z,2.92
2019-03-16T10:55:18.603Z,4.47
2019-03-16T10:57:58.775Z,3.33
2019-03-16T11:00:38.797Z,1.60
2019-03-16T11:03:18.749Z,1.55
2019-03-16T11:05:58.865Z,2.40
2019-03-16T11:08:39.142Z,4.83
2019-03-16T11:11:19.186Z,2.95
2019-03-16T11:14:02.671Z,4.10
2019-03-16T11:16:42.810Z,1.55
2019-03-16T11:19:22.474Z,1.80
2019-03-16T11:22:02.729Z,2.15
2019-03-16T11:24:42.863Z,2.33
2019-03-16T11:27:22.666Z,2.80
2019-03-16T11:30:02.485Z,3.27
2019-03-16T11:32:43.299Z,2.75
2019-03-16T11:35:23.248Z,2.98
2019-03-16T11:38:03.090Z,1.67
2019-03-16T11:40:43.553Z,2.95
2019-03-16T11:43:23.414Z,2.10
2019-03-16T11:46:03.647Z,2.15
2019-03-16T11:48:43.439Z,1.60
2019-03-16T11:51:24.107Z,2.05
2019-03-16T11:54:04.361Z,2.08
2019-03-16T11:56:44.281Z,3.02
2019-03-16T11:59:24.243Z,3.08
2019-03-16T12:02:05.525Z,3.25
2019-03-16T12:04:45.683Z,1.77
2019-03-16T12:07:25.652Z,1.72
2019-03-16T12:10:08.464Z,1.92
2019-03-16T12:12:48.737Z,3.17
2019-03-16T12:15:31.320Z,2.55
2019-03-16T12:18:11.531Z,3.02
2019-03-16T12:20:51.454Z,3.77
2019-03-16T12:23:31.880Z,3.90
2019-03-16T12:26:11.921Z,2.45
2019-03-16T12:28:52.299Z,2.98
2019-03-16T12:31:32.173Z,2.62
2019-03-16T12:34:12.265Z,3.72
2019-03-16T12:36:52.115Z,4.92
2019-03-16T12:39:32.337Z,2.22
2019-03-16T12:42:12.325Z,5.45
2019-03-16T12:44:52.541Z,3.35
2019-03-16T12:47:33.518Z,2.12
2019-03-16T12:50:14.106Z,2.60
2019-03-16T12:52:53.895Z,3.05
2019-03-16T12:55:33.980Z,2.50
2019-03-16T12:58:13.930Z,3.35
2019-03-16T13:00:53.970Z,2.70
2019-03-16T13:03:34.305Z,2.40
2019-03-16T13:06:14.699Z,3.00
2019-03-16T13:08:57.333Z,3.62
2019-03-16T13:11:43.319Z,2.95
2019-03-16T13:14:23.534Z,5.40
2019-03-16T13:17:03.696Z,3.95
2019-03-16T13:19:43.432Z,4.53
2019-03-16T13:22:23.314Z,3.83
2019-03-16T13:25:03.063Z,3.75
2019-03-16T13:27:42.763Z,4.03
2019-03-16T13:30:23.124Z,4.97
2019-03-16T13:33:03.331Z,4.85
2019-03-16T13:35:43.151Z,4.60
2019-03-16T13:38:23.330Z,2.98
2019-03-16T13:41:03.132Z,3.47
2019-03-16T13:43:43.446Z,5.70
2019-03-16T13:46:23.380Z,3.62
2019-03-16T13:49:06.617Z,3.08
2019-03-16T13:51:47.724Z,4.67
2019-03-16T13:54:27.644Z,3.98
2019-03-16T13:57:07.418Z,3.58
2019-03-16T13:59:47.247Z,6.15
2019-03-16T14:02:31.769Z,4.62
2019-03-16T14:05:13.785Z,3.45
2019-03-16T14:07:54.016Z,4.90
2019-03-16T14:10:34.644Z,4.58
2019-03-16T14:13:33.677Z,4.75
2019-03-16T14:16:13.631Z,4.17
2019-03-16T14:18:53.290Z,4.10
2019-03-16T14:21:32.986Z,3.90
2019-03-16T14:24:13.331Z,7.60
2019-03-16T14:26:53.218Z,4.70
2019-03-16T14:29:33.342Z,5.80
2019-03-16T14:32:13.281Z,7.03
2019-03-16T14:34:53.434Z,6.60
2019-03-16T14:37:33.489Z,5.90
2019-03-16T14:40:13.291Z,5.90
2019-03-16T14:42:53.917Z,6.30
2019-03-16T14:45:34.057Z,7.72
2019-03-16T14:48:13.969Z,7.40
2019-03-16T14:50:53.929Z,6.08
2019-03-16T14:53:34.991Z,6.00
2019-03-16T14:56:14.848Z,6.10
2019-03-16T14:58:54.719Z,7.80
2019-03-16T15:01:36.816Z,6.00
2019-03-16T15:04:16.626Z,6.42
2019-03-16T15:06:56.424Z,6.37
2019-03-16T15:09:38.028Z,6.50
2019-03-16T15:12:17.972Z,6.40
2019-03-16T15:14:59.232Z,6.35
2019-03-16T15:17:40.091Z,7.22
2019-03-16T15:20:20.083Z,6.55
2019-03-16T15:22:59.905Z,8.73
2019-03-16T15:25:40.195Z,7.03
2019-03-16T15:28:19.928Z,7.87
2019-03-16T15:31:00.637Z,5.58
2019-03-16T15:33:42.528Z,3.10
2019-03-16T15:36:24.489Z,4.95
2019-03-16T15:39:12.612Z,3.10
2019-03-16T15:41:55.906Z,3.27
2019-03-16T15:44:38.166Z,2.10
2019-03-16T15:47:25.920Z,3.47
2019-03-16T15:50:10.764Z,3.42
2019-03-16T15:52:51.341Z,1.85
2019-03-16T15:55:31.289Z,3.77
2019-03-16T15:58:11.213Z,2.52
2019-03-16T16:01:03.082Z,2.72
2019-03-16T16:03:36.843Z,2.12
2019-03-16T16:06:16.720Z,2.15
2019-03-16T16:08:56.268Z,2.13
2019-03-16T16:11:36.019Z,1.97
2019-03-16T16:14:16.167Z,3.85
2019-03-16T16:16:55.594Z,1.80
2019-03-16T16:19:35.529Z,3.62
2019-03-16T16:22:17.201Z,4.03
2019-03-16T16:24:56.941Z,4.42
2019-03-16T16:27:36.686Z,3.22
2019-03-16T16:30:16.937Z,1.50
2019-03-16T16:32:56.578Z,8.43
2019-03-16T16:35:36.370Z,2.07
2019-03-16T16:38:16.097Z,1.77
2019-03-16T16:40:56.683Z,2.75
2019-03-16T16:43:39.001Z,4.50
2019-03-16T16:46:20.162Z,2.17
2019-03-16T16:48:59.976Z,6.08
2019-03-16T16:51:39.897Z,2.50
2019-03-16T16:54:21.566Z,3.65
2019-03-16T16:57:02.315Z,2.65
2019-03-16T16:59:41.871Z,2.13
2019-03-16T17:02:21.818Z,2.30
2019-03-16T17:05:02.057Z,3.37
2019-03-16T17:07:46.596Z,3.50
2019-03-16T17:10:29.352Z,1.87
2019-03-16T17:13:10.672Z,1.50
2019-03-16T17:15:50.769Z,3.65
2019-03-16T17:18:31.029Z,1.80
2019-03-16T17:21:11.989Z,1.70
2019-03-16T17:23:51.661Z,2.20
2019-03-16T17:26:32.775Z,1.80
2019-03-16T17:29:12.413Z,1.97
2019-03-16T17:31:52.388Z,1.75
2019-03-16T17:34:32.897Z,3.65
2019-03-16T17:37:13.621Z,1.60
2019-03-16T17:39:53.425Z,2.00
2019-03-16T17:42:34.609Z,2.40
2019-03-16T17:45:15.018Z,2.73
2019-03-16T17:47:54.842Z,2.33
2019-03-16T17:50:34.872Z,2.50
2019-03-16T17:53:14.353Z,2.07
2019-03-16T17:55:54.519Z,2.17
2019-03-16T17:58:36.505Z,2.00
2019-03-16T18:01:18.680Z,3.12
2019-03-16T18:04:01.524Z,3.27
2019-03-16T18:06:41.657Z,2.47
2019-03-16T18:09:22.039Z,2.90
2019-03-16T18:12:02.365Z,2.45
2019-03-16T18:14:43.462Z,2.80
2019-03-16T18:17:24.153Z,3.27
2019-03-16T18:20:08.827Z,4.67
2019-03-16T18:22:51.103Z,6.95
2019-03-16T18:25:31.226Z,10.10
2019-03-16T18:28:11.528Z,4.30
2019-03-16T18:30:54.300Z,5.92
2019-03-16T18:33:34.170Z,3.02
2019-03-16T18:36:14.210Z,2.95
2019-03-16T18:38:53.964Z,1.92
2019-03-16T18:41:33.830Z,2.67
2019-03-16T18:44:14.235Z,2.90
2019-03-16T18:46:57.632Z,2.50
2019-03-16T18:49:38.071Z,2.42
2019-03-16T18:52:17.471Z,2.03
2019-03-16T18:54:57.297Z,2.42
2019-03-16T18:57:37.174Z,2.33
2019-03-16T19:00:17.179Z,2.10
2019-03-16T19:02:56.597Z,2.17
2019-03-16T19:05:36.428Z,1.67
2019-03-16T19:08:16.304Z,2.87
2019-03-16T19:10:56.251Z,1.40
2019-03-16T19:13:36.474Z,2.90
2019-03-16T19:16:16.199Z,2.10
2019-03-16T19:18:56.594Z,1.90
2019-03-16T19:21:36.882Z,1.70
2019-03-16T19:24:16.631Z,1.90
2019-03-16T19:26:56.612Z,3.02
2019-03-16T19:29:36.264Z,1.67
2019-03-16T19:32:17.207Z,1.90
2019-03-16T19:34:57.344Z,1.62
2019-03-16T19:37:39.442Z,2.30
2019-03-16T19:40:19.909Z,1.25
2019-03-16T19:43:01.133Z,3.70
2019-03-16T19:45:40.861Z,1.98
2019-03-16T19:48:20.571Z,2.60
2019-03-16T19:51:04.179Z,1.40
2019-03-16T19:53:43.851Z,3.42
2019-03-16T19:56:25.013Z,1.55
2019-03-16T19:59:05.073Z,1.25
2019-03-16T20:01:47.287Z,2.98
2019-03-16T20:04:35.769Z,1.93
2019-03-16T20:07:18.808Z,2.27
2019-03-16T20:09:58.236Z,1.63
2019-03-16T20:12:37.766Z,2.30
2019-03-16T20:15:19.613Z,2.12
2019-03-16T20:17:59.556Z,3.42
2019-03-16T20:20:42.258Z,2.20
2019-03-16T20:23:22.917Z,1.40
2019-03-16T20:26:02.961Z,1.62
2019-03-16T20:28:42.831Z,1.52
2019-03-16T20:31:25.048Z,3.42
2019-03-16T20:34:04.969Z,1.32
2019-03-16T20:36:44.540Z,1.77
2019-03-16T20:39:24.734Z,1.30
2019-03-16T20:42:05.199Z,2.03
2019-03-16T20:44:45.030Z,1.40
2019-03-16T20:47:25.849Z,2.30
2019-03-16T20:50:07.583Z,2.10
2019-03-16T20:52:48.416Z,1.97
2019-03-16T20:55:30.149Z,2.37
2019-03-16T20:58:11.216Z,2.23
2019-03-16T21:00:52.710Z,1.60
2019-03-16T21:03:32.803Z,2.87
2019-03-16T21:06:14.454Z,1.90
2019-03-16T21:09:03.101Z,2.80
2019-03-16T21:11:36.585Z,2.47
2019-03-16T21:14:16.395Z,2.60
2019-03-16T21:16:58.982Z,1.87
2019-03-16T21:19:38.646Z,1.93
2019-03-16T21:22:18.162Z,1.67
2019-03-16T21:24:58.313Z,2.10
2019-03-16T21:27:38.484Z,2.90
2019-03-16T21:30:20.570Z,1.97
2019-03-16T21:32:59.981Z,2.40
2019-03-16T21:35:41.070Z,1.93
2019-03-16T21:38:20.816Z,2.37
2019-03-16T21:41:00.704Z,1.92
2019-03-16T21:43:40.624Z,2.05
2019-03-16T21:46:21.093Z,1.77
2019-03-16T21:49:00.841Z,2.70
2019-03-16T21:51:44.531Z,2.08
2019-03-16T21:54:25.782Z,3.12
2019-03-16T21:57:06.466Z,2.00
2019-03-16T21:59:46.330Z,2.00
2019-03-16T22:02:26.867Z,1.82
2019-03-16T22:05:07.106Z,3.67
2019-03-16T22:07:49.004Z,3.05
2019-03-16T22:10:28.678Z,4.28
2019-03-16T22:13:08.733Z,2.85
2019-03-16T22:15:48.451Z,2.45
2019-03-16T22:18:28.471Z,2.77
2019-03-16T22:21:08.518Z,2.37
2019-03-16T22:23:48.766Z,2.42
2019-03-16T22:26:28.466Z,1.62
2019-03-16T22:29:10.522Z,3.35
2019-03-16T22:31:51.625Z,1.42
2019-03-16T22:34:32.226Z,1.77
2019-03-16T22:37:11.867Z,1.87
2019-03-16T22:39:51.686Z,1.52
2019-03-16T22:42:31.495Z,2.17
2019-03-16T22:45:14.168Z,1.40
2019-03-16T22:47:56.969Z,2.10
2019-03-16T22:50:37.624Z,1.80
2019-03-16T22:53:18.176Z,1.75
2019-03-16T22:55:57.920Z,2.30
2019-03-16T22:58:40.794Z,1.60
2019-03-16T23:01:21.489Z,2.15
2019-03-16T23:04:06.705Z,1.87
2019-03-16T23:06:44.004Z,1.82
2019-03-16T23:09:25.154Z,2.77
2019-03-16T23:12:04.836Z,1.47
2019-03-16T23:14:44.688Z,1.57
2019-03-16T23:17:24.572Z,1.30
2019-03-16T23:20:05.328Z,2.47
2019-03-16T23:22:47.677Z,2.67
2019-03-16T23:25:27.529Z,1.90
2019-03-16T23:28:09.029Z,1.90
2019-03-16T23:30:49.948Z,1.60
2019-03-16T23:33:30.058Z,1.70
2019-03-16T23:36:09.742Z,1.42
2019-03-16T23:38:50.390Z,1.40
2019-03-16T23:41:30.330Z,1.47
2019-03-16T23:44:10.764Z,2.10
2019-03-16T23:46:51.700Z,1.72
2019-03-16T23:49:32.903Z,1.20
2019-03-16T23:52:12.996Z,1.50
2019-03-16T23:54:52.776Z,1.60
2019-03-16T23:57:35.651Z,2.10
